Notice: Undefined index: language in D:\xampp\htdocs\vam\index.php on line 25
Open Air Virtual

 METAR AND TAF INFORMATION
METAR FOR EGCK
ADDS - METARS form results

(0425 UTC 12 December 2019)
Data provider http://aviationweather.gov/metar/data/
 
METAR text: EGCK 120420Z AUTO 17011KT 9999 -RA BKN016/// OVC032/// 05/03 Q0993
Conditions at: EGCK (CAERNARFON , GB) observed 0420 UTC 12 December 2019
Temperature: 5.0°C (41°F)
Dewpoint: 3.0°C (37°F) [RH = 87%]
Pressure (altimeter): 29.32 inches Hg (993.0 mb)
Winds: from the S (170 degrees) at 13 MPH (11 knots; 5.7 m/s)
Visibility: 6 or more miles (10+ km)
Ceiling: 1600 feet AGL
Clouds: broken clouds at 1600 feet AGL
overcast cloud deck at 3200 feet AGL
Weather: -RA  (light rain)

METAR text: EGCK 120350Z AUTO 17009KT 9999 -RA BKN014/// OVC028/// 05/03 Q0994
Conditions at: EGCK (CAERNARFON , GB) observed 0350 UTC 12 December 2019
Temperature: 5.0°C (41°F)
Dewpoint: 3.0°C (37°F) [RH = 87%]
Pressure (altimeter): 29.35 inches Hg (994.0 mb)
Winds: from the S (170 degrees) at 10 MPH (9 knots; 4.6 m/s)
Visibility: 6 or more miles (10+ km)
Ceiling: 1400 feet AGL
Clouds: broken clouds at 1400 feet AGL
overcast cloud deck at 2800 feet AGL
Weather: -RA  (light rain)

Forecast for: EGCK (CAERNARFON , GB)
Text: TAF EGCK 120155Z 1203/1212 22015KT 9999 SCT025
Forecast period: 0300 to 1200 UTC 12 December 2019
Forecast type: FROM: standard forecast or significant change
Winds: from the SW (220 degrees) at 17 MPH (15 knots; 7.7 m/s)
Visibility: 6 or more miles 10+ km)
Ceiling: at least 12,000 feet AGL
Clouds: scattered clouds at 2500 feet AGL
Weather: no significant weather forecast for this period
Text: TEMPO 1203/1212 24015G25KT 6000 SHRA BKN014
Forecast period: 0300 to 1200 UTC 12 December 2019
Forecast type: TEMPORARY: The following changes expected for less than half the time period
Winds: from the WSW (240 degrees) at 17 MPH (15 knots; 7.7 m/s)
gusting to 29 MPH (25 knots; 12.9 m/s)
Visibility: 4 miles (6 km)
Ceiling: 1400 feet AGL
Clouds: broken clouds at 1400 feet AGL
Weather: SHRA  (rain showers)

 AIRPORT MAP

 RUNWAY INFORMATION
Runway 02 Runway length 3534 ft Runway width 75 ft
Runway elevation 12 ft Runway displaced threshold 253 ft Runway heading 13
Runway 20 Runway length 3534 ft Runway width 75 ft
Runway elevation 13 ft Runway displaced threshold 0 ft Runway heading 193
Runway 08 Runway length 2887 ft Runway width 75 ft
Runway elevation 12 ft Runway displaced threshold 184 ft Runway heading 71
Runway 26 Runway length 2887 ft Runway width 75 ft
Runway elevation 11 ft Runway displaced threshold 292 ft Runway heading 251

 AIRPORT FREQUENCIES
Type A/G Name RDO Frequency 122.25 MHZ

 AIRPORT NEAR NAVIGATION AIDS
Type NDB Name Caernarfon Frequency 320 KHZ



Powered by Virtual Airlines Manager [v2.6.2]